sensor_id;sensor_type;location;lat;lon;timestamp;temperature;humidity
5848;DHT22;8756;49.29324300;8.70599800;2022-10-17T00:00:36;14.50;99.90
5848;DHT22;8756;49.29324300;8.70599800;2022-10-17T00:03:01;14.40;99.90
5848;DHT22;8756;49.29324300;8.70599800;2022-10-17T00:05:27;14.40;99.90
5848;DHT22;8756;49.29324300;8.70599800;2022-10-17T00:07:54;14.40;99.90
5848;DHT22;8756;49.29324300;8.70599800;2022-10-17T00:10:20;14.30;99.90
5848;DHT22;8756;49.29324300;8.70599800;2022-10-17T00:12:46;14.30;99.90
5848;DHT22;8756;49.29324300;8.70599800;2022-10-17T00:15:15;14.30;99.90
5848;DHT22;8756;49.29324300;8.70599800;2022-10-17T00:17:43;14.20;99.90
5848;DHT22;8756;49.29324300;8.70599800;2022-10-17T00:20:09;14.20;99.90
5848;DHT22;8756;49.29324300;8.70599800;2022-10-17T00:22:36;14.20;99.90
5848;DHT22;8756;49.29324300;8.70599800;2022-10-17T00:25:02;14.20;99.90
5848;DHT22;8756;49.29324300;8.70599800;2022-10-17T00:27:28;14.20;99.90
5848;DHT22;8756;49.29324300;8.70599800;2022-10-17T00:29:54;14.20;99.90
5848;DHT22;8756;49.29324300;8.70599800;2022-10-17T00:32:19;14.20;99.90
5848;DHT22;8756;49.29324300;8.70599800;2022-10-17T00:34:46;14.20;99.90
5848;DHT22;8756;49.29324300;8.70599800;2022-10-17T00:37:12;14.20;99.90
5848;DHT22;8756;49.29324300;8.70599800;2022-10-17T00:39:38;14.20;99.90
5848;DHT22;8756;49.29324300;8.70599800;2022-10-17T00:42:03;14.20;99.90
5848;DHT22;8756;49.29324300;8.70599800;2022-10-17T00:47:10;14.20;99.90
5848;DHT22;8756;49.29324300;8.70599800;2022-10-17T00:49:38;14.20;99.90
5848;DHT22;8756;49.29324300;8.70599800;2022-10-17T00:52:08;14.20;99.90
5848;DHT22;8756;49.29324300;8.70599800;2022-10-17T00:54:39;14.20;99.90
5848;DHT22;8756;49.29324300;8.70599800;2022-10-17T00:57:07;14.20;99.90
5848;DHT22;8756;49.29324300;8.70599800;2022-10-17T00:59:35;14.10;99.90
5848;DHT22;8756;49.29324300;8.70599800;2022-10-17T01:02:14;14.10;99.90
5848;DHT22;8756;49.29324300;8.70599800;2022-10-17T01:04:43;14.00;99.90
5848;DHT22;8756;49.29324300;8.70599800;2022-10-17T01:07:11;13.90;99.90
5848;DHT22;8756;49.29324300;8.70599800;2022-10-17T01:09:38;13.90;99.90
5848;DHT22;8756;49.29324300;8.70599800;2022-10-17T01:12:25;13.90;99.90
5848;DHT22;8756;49.29324300;8.70599800;2022-10-17T01:24:17;13.80;99.90
5848;DHT22;8756;49.29324300;8.70599800;2022-10-17T01:30:55;13.80;99.90
5848;DHT22;8756;49.29324300;8.70599800;2022-10-17T01:33:45;13.80;99.90
5848;DHT22;8756;49.29324300;8.70599800;2022-10-17T01:36:52;13.70;99.90
5848;DHT22;8756;49.29324300;8.70599800;2022-10-17T01:39:40;13.70;99.90
5848;DHT22;8756;49.29324300;8.70599800;2022-10-17T01:47:28;13.60;99.90
5848;DHT22;8756;49.29324300;8.70599800;2022-10-17T01:49:59;13.50;99.90
5848;DHT22;8756;49.29324300;8.70599800;2022-10-17T01:52:36;13.50;99.90
5848;DHT22;8756;49.29324300;8.70599800;2022-10-17T01:55:13;13.50;99.90
5848;DHT22;8756;49.29324300;8.70599800;2022-10-17T01:57:45;13.50;99.90
5848;DHT22;8756;49.29324300;8.70599800;2022-10-17T02:00:18;13.40;99.90
5848;DHT22;8756;49.29324300;8.70599800;2022-10-17T02:02:48;13.40;99.90
5848;DHT22;8756;49.29324300;8.70599800;2022-10-17T02:05:16;13.40;99.90
5848;DHT22;8756;49.29324300;8.70599800;2022-10-17T02:07:43;13.40;99.90
5848;DHT22;8756;49.29324300;8.70599800;2022-10-17T02:13:30;13.40;99.90
5848;DHT22;8756;49.29324300;8.70599800;2022-10-17T02:22:45;13.40;99.90
5848;DHT22;8756;49.29324300;8.70599800;2022-10-17T02:25:37;13.50;99.90
5848;DHT22;8756;49.29324300;8.70599800;2022-10-17T02:28:22;13.40;99.90
5848;DHT22;8756;49.29324300;8.70599800;2022-10-17T02:31:06;13.40;99.90
5848;DHT22;8756;49.29324300;8.70599800;2022-10-17T02:33:41;13.50;99.90
5848;DHT22;8756;49.29324300;8.70599800;2022-10-17T02:36:21;13.50;99.90
5848;DHT22;8756;49.29324300;8.70599800;2022-10-17T02:38:50;13.50;99.90
5848;DHT22;8756;49.29324300;8.70599800;2022-10-17T02:41:18;13.40;99.90
5848;DHT22;8756;49.29324300;8.70599800;2022-10-17T02:43:47;13.40;99.90
5848;DHT22;8756;49.29324300;8.70599800;2022-10-17T02:46:14;13.40;99.90
5848;DHT22;8756;49.29324300;8.70599800;2022-10-17T02:48:50;13.40;99.90
5848;DHT22;8756;49.29324300;8.70599800;2022-10-17T02:51:51;13.30;99.90
5848;DHT22;8756;49.29324300;8.70599800;2022-10-17T02:54:30;13.30;99.90
5848;DHT22;8756;49.29324300;8.70599800;2022-10-17T02:57:09;13.30;99.90
5848;DHT22;8756;49.29324300;8.70599800;2022-10-17T02:59:39;13.30;99.90
5848;DHT22;8756;49.29324300;8.70599800;2022-10-17T03:02:09;13.20;99.90
5848;DHT22;8756;49.29324300;8.70599800;2022-10-17T03:04:36;13.30;99.90
5848;DHT22;8756;49.29324300;8.70599800;2022-10-17T03:07:01;13.20;99.90
5848;DHT22;8756;49.29324300;8.70599800;2022-10-17T03:09:27;13.20;99.90
5848;DHT22;8756;49.29324300;8.70599800;2022-10-17T03:11:53;13.20;99.90
5848;DHT22;8756;49.29324300;8.70599800;2022-10-17T03:14:19;13.20;99.90
5848;DHT22;8756;49.29324300;8.70599800;2022-10-17T03:16:45;13.20;99.90
5848;DHT22;8756;49.29324300;8.70599800;2022-10-17T03:19:11;13.20;99.90
5848;DHT22;8756;49.29324300;8.70599800;2022-10-17T03:21:37;13.20;99.90
5848;DHT22;8756;49.29324300;8.70599800;2022-10-17T03:24:03;13.30;99.90
5848;DHT22;8756;49.29324300;8.70599800;2022-10-17T03:26:30;13.30;99.90
5848;DHT22;8756;49.29324300;8.70599800;2022-10-17T03:28:55;13.30;99.90
5848;DHT22;8756;49.29324300;8.70599800;2022-10-17T03:31:21;13.30;99.90
5848;DHT22;8756;49.29324300;8.70599800;2022-10-17T03:33:47;13.30;99.90
5848;DHT22;8756;49.29324300;8.70599800;2022-10-17T03:36:15;13.40;99.90
5848;DHT22;8756;49.29324300;8.70599800;2022-10-17T03:38:43;13.30;99.90
5848;DHT22;8756;49.29324300;8.70599800;2022-10-17T03:41:09;13.30;99.90
5848;DHT22;8756;49.29324300;8.70599800;2022-10-17T03:43:35;13.30;99.90
5848;DHT22;8756;49.29324300;8.70599800;2022-10-17T03:46:01;13.30;99.90
5848;DHT22;8756;49.29324300;8.70599800;2022-10-17T03:48:28;13.20;99.90
5848;DHT22;8756;49.29324300;8.70599800;2022-10-17T03:51:03;13.20;99.90
5848;DHT22;8756;49.29324300;8.70599800;2022-10-17T03:53:30;13.10;99.90
5848;DHT22;8756;49.29324300;8.70599800;2022-10-17T03:56:11;13.10;99.90
5848;DHT22;8756;49.29324300;8.70599800;2022-10-17T03:58:37;13.10;99.90
5848;DHT22;8756;49.29324300;8.70599800;2022-10-17T04:01:06;13.10;99.90
5848;DHT22;8756;49.29324300;8.70599800;2022-10-17T04:03:33;13.00;99.90
5848;DHT22;8756;49.29324300;8.70599800;2022-10-17T04:05:59;13.00;99.90
5848;DHT22;8756;49.29324300;8.70599800;2022-10-17T04:08:26;12.90;99.90
5848;DHT22;8756;49.29324300;8.70599800;2022-10-17T04:10:56;13.00;99.90
5848;DHT22;8756;49.29324300;8.70599800;2022-10-17T04:13:22;12.90;99.90
5848;DHT22;8756;49.29324300;8.70599800;2022-10-17T04:15:56;12.90;99.90
5848;DHT22;8756;49.29324300;8.70599800;2022-10-17T04:18:23;13.00;99.90
5848;DHT22;8756;49.29324300;8.70599800;2022-10-17T04:20:49;12.90;99.90
5848;DHT22;8756;49.29324300;8.70599800;2022-10-17T04:23:15;12.90;99.90
5848;DHT22;8756;49.29324300;8.70599800;2022-10-17T04:25:41;12.90;99.90
5848;DHT22;8756;49.29324300;8.70599800;2022-10-17T04:28:06;13.00;99.90
5848;DHT22;8756;49.29324300;8.70599800;2022-10-17T04:30:32;13.00;99.90
5848;DHT22;8756;49.29324300;8.70599800;2022-10-17T04:32:58;13.00;99.90
5848;DHT22;8756;49.29324300;8.70599800;2022-10-17T04:35:24;13.00;99.90
5848;DHT22;8756;49.29324300;8.70599800;2022-10-17T04:37:49;13.00;99.90
5848;DHT22;8756;49.29324300;8.70599800;2022-10-17T04:40:15;13.00;99.90
5848;DHT22;8756;49.29324300;8.70599800;2022-10-17T04:42:41;13.00;99.90
5848;DHT22;8756;49.29324300;8.70599800;2022-10-17T04:45:07;13.00;99.90
5848;DHT22;8756;49.29324300;8.70599800;2022-10-17T04:47:33;12.90;99.90
5848;DHT22;8756;49.29324300;8.70599800;2022-10-17T04:49:59;12.90;99.90
5848;DHT22;8756;49.29324300;8.70599800;2022-10-17T04:52:24;12.90;99.90
5848;DHT22;8756;49.29324300;8.70599800;2022-10-17T04:54:50;12.80;99.90
5848;DHT22;8756;49.29324300;8.70599800;2022-10-17T04:57:16;12.80;99.90
5848;DHT22;8756;49.29324300;8.70599800;2022-10-17T04:59:43;12.80;99.90
5848;DHT22;8756;49.29324300;8.70599800;2022-10-17T05:02:08;12.70;99.90
5848;DHT22;8756;49.29324300;8.70599800;2022-10-17T05:04:34;12.70;99.90
5848;DHT22;8756;49.29324300;8.70599800;2022-10-17T05:07:00;12.70;99.90
5848;DHT22;8756;49.29324300;8.70599800;2022-10-17T05:09:26;12.70;99.90
5848;DHT22;8756;49.29324300;8.70599800;2022-10-17T05:11:52;12.70;99.90
5848;DHT22;8756;49.29324300;8.70599800;2022-10-17T05:14:18;12.70;99.90
5848;DHT22;8756;49.29324300;8.70599800;2022-10-17T05:16:43;12.70;99.90
5848;DHT22;8756;49.29324300;8.70599800;2022-10-17T05:19:10;12.70;99.90
5848;DHT22;8756;49.29324300;8.70599800;2022-10-17T05:21:37;12.70;99.90
5848;DHT22;8756;49.29324300;8.70599800;2022-10-17T05:24:07;12.70;99.90
5848;DHT22;8756;49.29324300;8.70599800;2022-10-17T05:26:34;12.70;99.90
5848;DHT22;8756;49.29324300;8.70599800;2022-10-17T05:29:00;12.70;99.90
5848;DHT22;8756;49.29324300;8.70599800;2022-10-17T05:31:28;12.70;99.90
5848;DHT22;8756;49.29324300;8.70599800;2022-10-17T05:33:55;12.80;99.90
5848;DHT22;8756;49.29324300;8.70599800;2022-10-17T05:36:21;12.80;99.90
5848;DHT22;8756;49.29324300;8.70599800;2022-10-17T05:38:50;12.80;99.90
5848;DHT22;8756;49.29324300;8.70599800;2022-10-17T05:41:17;12.70;99.90
5848;DHT22;8756;49.29324300;8.70599800;2022-10-17T05:43:44;12.70;99.90
5848;DHT22;8756;49.29324300;8.70599800;2022-10-17T05:46:09;12.70;99.90
5848;DHT22;8756;49.29324300;8.70599800;2022-10-17T05:48:35;12.70;99.90
5848;DHT22;8756;49.29324300;8.70599800;2022-10-17T05:51:04;12.70;99.90
5848;DHT22;8756;49.29324300;8.70599800;2022-10-17T05:53:33;12.70;99.90
5848;DHT22;8756;49.29324300;8.70599800;2022-10-17T05:56:01;12.70;99.90
5848;DHT22;8756;49.29324300;8.70599800;2022-10-17T05:58:29;12.70;99.90
5848;DHT22;8756;49.29324300;8.70599800;2022-10-17T06:01:05;12.70;99.90
5848;DHT22;8756;49.29324300;8.70599800;2022-10-17T06:03:32;12.70;99.90
5848;DHT22;8756;49.29324300;8.70599800;2022-10-17T06:06:06;12.80;99.90
5848;DHT22;8756;49.29324300;8.70599800;2022-10-17T06:08:33;12.80;99.90
5848;DHT22;8756;49.29324300;8.70599800;2022-10-17T06:10:59;12.80;99.90
5848;DHT22;8756;49.29324300;8.70599800;2022-10-17T06:13:24;12.80;99.90
5848;DHT22;8756;49.29324300;8.70599800;2022-10-17T06:15:50;12.80;99.90
5848;DHT22;8756;49.29324300;8.70599800;2022-10-17T06:18:16;12.90;99.90
5848;DHT22;8756;49.29324300;8.70599800;2022-10-17T06:20:42;12.90;99.90
5848;DHT22;8756;49.29324300;8.70599800;2022-10-17T06:23:08;12.90;99.90
5848;DHT22;8756;49.29324300;8.70599800;2022-10-17T06:25:33;12.90;99.90
5848;DHT22;8756;49.29324300;8.70599800;2022-10-17T06:27:59;12.90;99.90
5848;DHT22;8756;49.29324300;8.70599800;2022-10-17T06:30:25;13.00;99.90
5848;DHT22;8756;49.29324300;8.70599800;2022-10-17T06:32:51;13.00;99.90
5848;DHT22;8756;49.29324300;8.70599800;2022-10-17T06:35:21;13.00;99.90
5848;DHT22;8756;49.29324300;8.70599800;2022-10-17T06:37:46;13.10;99.90
5848;DHT22;8756;49.29324300;8.70599800;2022-10-17T06:40:12;13.10;99.90
5848;DHT22;8756;49.29324300;8.70599800;2022-10-17T06:42:42;13.10;99.90
5848;DHT22;8756;49.29324300;8.70599800;2022-10-17T06:45:08;13.20;99.90
5848;DHT22;8756;49.29324300;8.70599800;2022-10-17T06:47:35;13.20;99.90
5848;DHT22;8756;49.29324300;8.70599800;2022-10-17T06:50:01;13.30;99.90
5848;DHT22;8756;49.29324300;8.70599800;2022-10-17T06:52:27;13.40;99.90
5848;DHT22;8756;49.29324300;8.70599800;2022-10-17T06:54:53;13.40;99.90
5848;DHT22;8756;49.29324300;8.70599800;2022-10-17T06:57:19;13.50;99.90
5848;DHT22;8756;49.29324300;8.70599800;2022-10-17T06:59:44;13.60;99.90
5848;DHT22;8756;49.29324300;8.70599800;2022-10-17T07:02:10;13.60;99.90
5848;DHT22;8756;49.29324300;8.70599800;2022-10-17T07:04:36;13.70;99.90
5848;DHT22;8756;49.29324300;8.70599800;2022-10-17T07:07:03;13.70;99.90
5848;DHT22;8756;49.29324300;8.70599800;2022-10-17T07:09:30;13.80;99.90
5848;DHT22;8756;49.29324300;8.70599800;2022-10-17T07:11:57;13.80;99.90
5848;DHT22;8756;49.29324300;8.70599800;2022-10-17T07:14:25;13.80;99.90
5848;DHT22;8756;49.29324300;8.70599800;2022-10-17T07:16:57;13.90;99.90
5848;DHT22;8756;49.29324300;8.70599800;2022-10-17T07:19:24;13.90;99.90
5848;DHT22;8756;49.29324300;8.70599800;2022-10-17T07:21:51;13.90;99.90
5848;DHT22;8756;49.29324300;8.70599800;2022-10-17T07:24:17;14.00;99.90
5848;DHT22;8756;49.29324300;8.70599800;2022-10-17T07:26:43;14.00;99.90
5848;DHT22;8756;49.29324300;8.70599800;2022-10-17T07:29:09;14.10;99.90
5848;DHT22;8756;49.29324300;8.70599800;2022-10-17T07:31:35;14.00;99.90
5848;DHT22;8756;49.29324300;8.70599800;2022-10-17T07:34:01;14.10;99.90
5848;DHT22;8756;49.29324300;8.70599800;2022-10-17T07:36:27;14.10;99.90
5848;DHT22;8756;49.29324300;8.70599800;2022-10-17T07:38:53;14.20;99.90
5848;DHT22;8756;49.29324300;8.70599800;2022-10-17T07:41:19;14.30;99.90
5848;DHT22;8756;49.29324300;8.70599800;2022-10-17T07:43:45;14.40;99.90
5848;DHT22;8756;49.29324300;8.70599800;2022-10-17T07:46:11;14.50;99.90
5848;DHT22;8756;49.29324300;8.70599800;2022-10-17T07:48:40;14.50;99.90
5848;DHT22;8756;49.29324300;8.70599800;2022-10-17T07:51:07;14.50;99.90
5848;DHT22;8756;49.29324300;8.70599800;2022-10-17T07:53:35;14.60;99.90
5848;DHT22;8756;49.29324300;8.70599800;2022-10-17T07:56:04;14.70;99.90
5848;DHT22;8756;49.29324300;8.70599800;2022-10-17T07:58:33;14.70;99.90
5848;DHT22;8756;49.29324300;8.70599800;2022-10-17T08:01:01;14.80;99.90
5848;DHT22;8756;49.29324300;8.70599800;2022-10-17T08:03:28;14.90;99.90
5848;DHT22;8756;49.29324300;8.70599800;2022-10-17T08:06:01;15.00;99.90
5848;DHT22;8756;49.29324300;8.70599800;2022-10-17T08:08:27;15.10;99.90
5848;DHT22;8756;49.29324300;8.70599800;2022-10-17T08:10:55;15.10;99.90
5848;DHT22;8756;49.29324300;8.70599800;2022-10-17T08:13:21;15.20;99.90
5848;DHT22;8756;49.29324300;8.70599800;2022-10-17T08:15:47;15.30;99.90
5848;DHT22;8756;49.29324300;8.70599800;2022-10-17T08:18:14;15.30;99.90
5848;DHT22;8756;49.29324300;8.70599800;2022-10-17T08:20:41;15.40;99.90
5848;DHT22;8756;49.29324300;8.70599800;2022-10-17T08:23:07;15.40;99.90
5848;DHT22;8756;49.29324300;8.70599800;2022-10-17T08:25:33;15.50;99.90
5848;DHT22;8756;49.29324300;8.70599800;2022-10-17T08:27:58;15.50;99.90
5848;DHT22;8756;49.29324300;8.70599800;2022-10-17T08:30:24;15.60;99.90
5848;DHT22;8756;49.29324300;8.70599800;2022-10-17T08:32:50;15.60;99.90
5848;DHT22;8756;49.29324300;8.70599800;2022-10-17T08:35:16;15.70;99.90
5848;DHT22;8756;49.29324300;8.70599800;2022-10-17T08:37:42;15.70;99.90
5848;DHT22;8756;49.29324300;8.70599800;2022-10-17T08:40:18;15.80;99.90
5848;DHT22;8756;49.29324300;8.70599800;2022-10-17T08:43:11;15.90;99.90
5848;DHT22;8756;49.29324300;8.70599800;2022-10-17T08:46:13;16.00;99.90
5848;DHT22;8756;49.29324300;8.70599800;2022-10-17T08:48:42;16.10;99.90
5848;DHT22;8756;49.29324300;8.70599800;2022-10-17T08:51:22;16.20;99.90
5848;DHT22;8756;49.29324300;8.70599800;2022-10-17T08:53:57;16.20;99.90
5848;DHT22;8756;49.29324300;8.70599800;2022-10-17T08:56:48;16.30;99.90
5848;DHT22;8756;49.29324300;8.70599800;2022-10-17T08:59:27;16.40;99.90
5848;DHT22;8756;49.29324300;8.70599800;2022-10-17T09:02:03;16.50;99.90
5848;DHT22;8756;49.29324300;8.70599800;2022-10-17T09:11:39;16.70;99.90
5848;DHT22;8756;49.29324300;8.70599800;2022-10-17T09:14:39;16.80;99.90
5848;DHT22;8756;49.29324300;8.70599800;2022-10-17T09:20:17;16.90;99.90
5848;DHT22;8756;49.29324300;8.70599800;2022-10-17T09:22:57;16.90;99.90
5848;DHT22;8756;49.29324300;8.70599800;2022-10-17T09:25:26;17.00;99.90
5848;DHT22;8756;49.29324300;8.70599800;2022-10-17T09:28:26;17.00;99.90
5848;DHT22;8756;49.29324300;8.70599800;2022-10-17T09:31:00;17.10;99.90
5848;DHT22;8756;49.29324300;8.70599800;2022-10-17T09:33:29;17.10;99.90
5848;DHT22;8756;49.29324300;8.70599800;2022-10-17T09:36:03;17.10;99.90
5848;DHT22;8756;49.29324300;8.70599800;2022-10-17T09:38:41;17.20;99.90
5848;DHT22;8756;49.29324300;8.70599800;2022-10-17T09:41:16;17.20;99.90
5848;DHT22;8756;49.29324300;8.70599800;2022-10-17T09:43:46;17.20;99.90
5848;DHT22;8756;49.29324300;8.70599800;2022-10-17T09:46:25;17.30;99.90
5848;DHT22;8756;49.29324300;8.70599800;2022-10-17T09:49:17;17.30;99.90
5848;DHT22;8756;49.29324300;8.70599800;2022-10-17T09:51:45;17.40;99.90
5848;DHT22;8756;49.29324300;8.70599800;2022-10-17T09:57:10;17.30;99.90
5848;DHT22;8756;49.29324300;8.70599800;2022-10-17T09:59:41;17.30;99.90
5848;DHT22;8756;49.29324300;8.70599800;2022-10-17T10:05:05;17.50;99.90
5848;DHT22;8756;49.29324300;8.70599800;2022-10-17T10:07:58;17.60;99.90
5848;DHT22;8756;49.29324300;8.70599800;2022-10-17T10:10:28;17.60;99.90
5848;DHT22;8756;49.29324300;8.70599800;2022-10-17T10:13:06;17.70;99.90
5848;DHT22;8756;49.29324300;8.70599800;2022-10-17T10:15:46;17.80;99.90
5848;DHT22;8756;49.29324300;8.70599800;2022-10-17T10:26:36;17.80;99.90
5848;DHT22;8756;49.29324300;8.70599800;2022-10-17T10:29:16;17.80;99.90
5848;DHT22;8756;49.29324300;8.70599800;2022-10-17T10:31:43;17.80;99.90
5848;DHT22;8756;49.29324300;8.70599800;2022-10-17T10:34:22;17.80;99.90
5848;DHT22;8756;49.29324300;8.70599800;2022-10-17T10:36:51;17.80;99.90
5848;DHT22;8756;49.29324300;8.70599800;2022-10-17T10:39:33;17.80;99.90
5848;DHT22;8756;49.29324300;8.70599800;2022-10-17T10:42:01;17.90;99.90
5848;DHT22;8756;49.29324300;8.70599800;2022-10-17T10:44:29;17.90;99.90
5848;DHT22;8756;49.29324300;8.70599800;2022-10-17T10:47:25;17.90;99.90
5848;DHT22;8756;49.29324300;8.70599800;2022-10-17T10:50:17;17.90;99.90
5848;DHT22;8756;49.29324300;8.70599800;2022-10-17T10:56:00;18.10;99.90
5848;DHT22;8756;49.29324300;8.70599800;2022-10-17T11:05:07;18.20;99.90
5848;DHT22;8756;49.29324300;8.70599800;2022-10-17T11:07:44;18.20;99.90
5848;DHT22;8756;49.29324300;8.70599800;2022-10-17T11:13:20;18.40;99.90
5848;DHT22;8756;49.29324300;8.70599800;2022-10-17T11:16:03;18.40;99.90
5848;DHT22;8756;49.29324300;8.70599800;2022-10-17T11:18:58;18.40;99.90
5848;DHT22;8756;49.29324300;8.70599800;2022-10-17T11:21:36;18.50;99.90
5848;DHT22;8756;49.29324300;8.70599800;2022-10-17T11:24:24;18.60;99.90
5848;DHT22;8756;49.29324300;8.70599800;2022-10-17T11:27:12;18.60;99.90
5848;DHT22;8756;49.29324300;8.70599800;2022-10-17T11:29:41;18.80;99.90
5848;DHT22;8756;49.29324300;8.70599800;2022-10-17T11:35:19;18.90;99.90
5848;DHT22;8756;49.29324300;8.70599800;2022-10-17T11:40:51;19.00;99.90
5848;DHT22;8756;49.29324300;8.70599800;2022-10-17T11:43:39;19.00;99.90
5848;DHT22;8756;49.29324300;8.70599800;2022-10-17T11:46:26;19.10;99.90
5848;DHT22;8756;49.29324300;8.70599800;2022-10-17T11:49:11;19.10;99.90
5848;DHT22;8756;49.29324300;8.70599800;2022-10-17T11:51:52;19.10;99.90
5848;DHT22;8756;49.29324300;8.70599800;2022-10-17T11:54:54;19.20;99.90
5848;DHT22;8756;49.29324300;8.70599800;2022-10-17T11:57:51;19.10;99.90
5848;DHT22;8756;49.29324300;8.70599800;2022-10-17T12:03:51;19.20;99.90
5848;DHT22;8756;49.29324300;8.70599800;2022-10-17T12:06:35;19.30;99.90
5848;DHT22;8756;49.29324300;8.70599800;2022-10-17T12:09:31;19.30;99.90
5848;DHT22;8756;49.29324300;8.70599800;2022-10-17T12:12:06;19.40;99.90
5848;DHT22;8756;49.29324300;8.70599800;2022-10-17T12:17:29;19.50;99.90
5848;DHT22;8756;49.29324300;8.70599800;2022-10-17T12:23:13;19.60;99.90
5848;DHT22;8756;49.29324300;8.70599800;2022-10-17T12:25:49;19.60;99.90
5848;DHT22;8756;49.29324300;8.70599800;2022-10-17T12:28:33;19.70;99.90
5848;DHT22;8756;49.29324300;8.70599800;2022-10-17T12:31:25;19.70;99.90
5848;DHT22;8756;49.29324300;8.70599800;2022-10-17T12:33:56;19.70;99.90
5848;DHT22;8756;49.29324300;8.70599800;2022-10-17T12:49:43;19.80;99.90
5848;DHT22;8756;49.29324300;8.70599800;2022-10-17T12:54:56;19.80;99.90
5848;DHT22;8756;49.29324300;8.70599800;2022-10-17T12:57:49;19.90;99.90
5848;DHT22;8756;49.29324300;8.70599800;2022-10-17T13:00:32;19.90;99.90
5848;DHT22;8756;49.29324300;8.70599800;2022-10-17T13:03:09;19.90;99.90
5848;DHT22;8756;49.29324300;8.70599800;2022-10-17T13:05:40;19.90;99.90
5848;DHT22;8756;49.29324300;8.70599800;2022-10-17T13:08:33;19.90;99.90
5848;DHT22;8756;49.29324300;8.70599800;2022-10-17T13:11:02;20.00;99.90
5848;DHT22;8756;49.29324300;8.70599800;2022-10-17T13:13:49;20.00;99.90
5848;DHT22;8756;49.29324300;8.70599800;2022-10-17T13:16:33;20.10;99.90
5848;DHT22;8756;49.29324300;8.70599800;2022-10-17T13:19:02;20.10;99.90
5848;DHT22;8756;49.29324300;8.70599800;2022-10-17T13:21:29;20.10;99.90
5848;DHT22;8756;49.29324300;8.70599800;2022-10-17T13:23:55;20.10;99.90
5848;DHT22;8756;49.29324300;8.70599800;2022-10-17T13:26:27;20.10;99.90
5848;DHT22;8756;49.29324300;8.70599800;2022-10-17T13:29:04;20.10;99.90
5848;DHT22;8756;49.29324300;8.70599800;2022-10-17T13:31:40;20.10;99.90
5848;DHT22;8756;49.29324300;8.70599800;2022-10-17T13:34:19;20.20;99.90
5848;DHT22;8756;49.29324300;8.70599800;2022-10-17T13:36:49;20.20;99.90
5848;DHT22;8756;49.29324300;8.70599800;2022-10-17T13:39:24;20.20;99.90
5848;DHT22;8756;49.29324300;8.70599800;2022-10-17T13:41:53;20.20;99.90
5848;DHT22;8756;49.29324300;8.70599800;2022-10-17T13:44:23;20.30;99.90
5848;DHT22;8756;49.29324300;8.70599800;2022-10-17T13:46:52;20.30;99.90
5848;DHT22;8756;49.29324300;8.70599800;2022-10-17T13:49:29;20.30;99.90
5848;DHT22;8756;49.29324300;8.70599800;2022-10-17T13:51:58;20.30;99.90
5848;DHT22;8756;49.29324300;8.70599800;2022-10-17T13:54:40;20.30;99.90
5848;DHT22;8756;49.29324300;8.70599800;2022-10-17T13:57:23;20.30;99.90
5848;DHT22;8756;49.29324300;8.70599800;2022-10-17T13:59:58;20.30;99.90
5848;DHT22;8756;49.29324300;8.70599800;2022-10-17T14:02:30;20.20;99.90
5848;DHT22;8756;49.29324300;8.70599800;2022-10-17T14:05:09;20.30;99.90
5848;DHT22;8756;49.29324300;8.70599800;2022-10-17T14:07:58;20.30;99.90
5848;DHT22;8756;49.29324300;8.70599800;2022-10-17T14:10:29;20.30;99.90
5848;DHT22;8756;49.29324300;8.70599800;2022-10-17T14:12:59;20.30;99.90
5848;DHT22;8756;49.29324300;8.70599800;2022-10-17T14:15:28;20.30;99.90
5848;DHT22;8756;49.29324300;8.70599800;2022-10-17T14:18:03;20.20;99.90
5848;DHT22;8756;49.29324300;8.70599800;2022-10-17T14:20:33;20.20;99.90
5848;DHT22;8756;49.29324300;8.70599800;2022-10-17T14:22:59;20.20;99.90
5848;DHT22;8756;49.29324300;8.70599800;2022-10-17T14:25:38;20.20;99.90
5848;DHT22;8756;49.29324300;8.70599800;2022-10-17T14:30:47;20.20;99.90
5848;DHT22;8756;49.29324300;8.70599800;2022-10-17T14:33:30;20.20;99.90
5848;DHT22;8756;49.29324300;8.70599800;2022-10-17T14:35:59;20.10;99.90
5848;DHT22;8756;49.29324300;8.70599800;2022-10-17T14:38:27;20.20;99.90
5848;DHT22;8756;49.29324300;8.70599800;2022-10-17T14:40:59;20.10;99.90
5848;DHT22;8756;49.29324300;8.70599800;2022-10-17T14:43:55;20.10;99.90
5848;DHT22;8756;49.29324300;8.70599800;2022-10-17T14:46:22;20.10;99.90
5848;DHT22;8756;49.29324300;8.70599800;2022-10-17T14:48:55;20.10;99.90
5848;DHT22;8756;49.29324300;8.70599800;2022-10-17T14:51:32;20.00;99.90
5848;DHT22;8756;49.29324300;8.70599800;2022-10-17T14:53:59;20.10;99.90
5848;DHT22;8756;49.29324300;8.70599800;2022-10-17T14:56:48;20.10;99.90
5848;DHT22;8756;49.29324300;8.70599800;2022-10-17T14:59:16;20.00;99.90
5848;DHT22;8756;49.29324300;8.70599800;2022-10-17T15:01:47;20.00;99.90
5848;DHT22;8756;49.29324300;8.70599800;2022-10-17T15:04:14;20.00;99.90
5848;DHT22;8756;49.29324300;8.70599800;2022-10-17T15:06:40;20.00;99.90
5848;DHT22;8756;49.29324300;8.70599800;2022-10-17T15:09:06;20.10;99.90
5848;DHT22;8756;49.29324300;8.70599800;2022-10-17T15:11:31;20.10;99.90
5848;DHT22;8756;49.29324300;8.70599800;2022-10-17T15:13:58;20.00;99.90
5848;DHT22;8756;49.29324300;8.70599800;2022-10-17T15:16:26;20.00;99.90
5848;DHT22;8756;49.29324300;8.70599800;2022-10-17T15:18:55;20.00;99.90
5848;DHT22;8756;49.29324300;8.70599800;2022-10-17T15:21:24;20.00;99.90
5848;DHT22;8756;49.29324300;8.70599800;2022-10-17T15:23:50;20.00;99.90
5848;DHT22;8756;49.29324300;8.70599800;2022-10-17T15:26:23;20.00;99.90
5848;DHT22;8756;49.29324300;8.70599800;2022-10-17T15:28:50;20.00;99.90
5848;DHT22;8756;49.29324300;8.70599800;2022-10-17T15:31:21;19.90;99.90
5848;DHT22;8756;49.29324300;8.70599800;2022-10-17T15:33:48;19.90;99.90
5848;DHT22;8756;49.29324300;8.70599800;2022-10-17T15:36:26;19.90;99.90
5848;DHT22;8756;49.29324300;8.70599800;2022-10-17T15:38:56;19.90;99.90
5848;DHT22;8756;49.29324300;8.70599800;2022-10-17T15:41:24;19.90;99.90
5848;DHT22;8756;49.29324300;8.70599800;2022-10-17T15:43:51;19.90;99.90
5848;DHT22;8756;49.29324300;8.70599800;2022-10-17T15:46:20;19.80;99.90
5848;DHT22;8756;49.29324300;8.70599800;2022-10-17T15:48:48;19.80;99.90
5848;DHT22;8756;49.29324300;8.70599800;2022-10-17T15:51:15;19.80;99.90
5848;DHT22;8756;49.29324300;8.70599800;2022-10-17T15:53:41;19.70;99.90